Time;durP1;ratioP1;P1;durP2;ratioP2;P2;SDS_P1;SDS_P2;PMS_P1;PMS_P2;Temp;Humidity;BMP_temperature;BMP_pressure;BME280_temperature;BME280_humidity;BME280_pressure;Samples;Min_cycle;Max_cycle;Signal;HPM_P1;HPM_P2
2022/05/21 00:01:30;;;;;;;13.63;7.95;;;;;;;15.95;92.24;94397.56;5093196;28;20058;-48
2022/05/21 00:03:57;;;;;;;12.73;8.50;;;;;;;15.86;92.28;94401.00;5093628;28;20116;-50
2022/05/21 00:06:24;;;;;;;11.63;8.20;;;;;;;15.84;91.48;94397.88;5093470;28;20407;-57
2022/05/21 00:08:51;;;;;;;13.18;9.00;;;;;;;15.85;92.21;94410.50;5093638;28;20047;-55
2022/05/21 00:11:18;;;;;;;14.63;8.95;;;;;;;15.78;90.31;94399.63;5093848;28;20040;-48
2022/05/21 00:13:47;;;;;;;12.10;8.30;;;;;;;15.82;90.77;94405.06;5084557;28;20912;-48
2022/05/21 00:16:13;;;;;;;14.27;8.60;;;;;;;15.88;91.19;94406.09;5093605;28;20048;-49
2022/05/21 00:18:40;;;;;;;12.20;8.60;;;;;;;15.76;90.79;94419.44;5093023;28;20044;-48
2022/05/21 00:21:07;;;;;;;13.40;8.77;;;;;;;15.67;92.16;94419.25;5092873;28;20070;-53
2022/05/21 00:23:37;;;;;;;14.85;9.15;;;;;;;15.69;90.75;94416.81;5077740;28;20051;-52
2022/05/21 00:26:07;;;;;;;13.10;8.48;;;;;;;15.62;90.28;94402.41;5051635;28;20124;-52
2022/05/21 00:28:37;;;;;;;14.13;8.60;;;;;;;15.54;90.85;94405.38;5052920;28;20053;-53
2022/05/21 00:31:05;;;;;;;12.88;8.57;;;;;;;15.54;91.31;94407.38;5052915;28;20041;-50
2022/05/21 00:33:32;;;;;;;11.57;8.23;;;;;;;15.72;90.13;94402.16;5052705;28;20142;-49
2022/05/21 00:35:59;;;;;;;12.13;8.02;;;;;;;15.54;89.00;94401.84;5052602;28;20049;-49
2022/05/21 00:38:26;;;;;;;11.32;8.40;;;;;;;15.51;90.07;94394.38;5052321;28;20406;-48
2022/05/21 00:40:54;;;;;;;11.20;7.80;;;;;;;15.36;89.38;94392.00;5052705;28;20045;-57
2022/05/21 00:43:42;;;;;;;12.75;8.25;;;;;;;15.24;90.20;94401.00;5052468;28;20049;-48
2022/05/21 00:46:16;;;;;;;13.18;8.63;;;;;;;15.02;90.62;94400.00;5052553;28;20067;-51
2022/05/21 00:48:45;;;;;;;11.27;7.82;;;;;;;15.22;89.54;94395.13;5052541;28;20504;-50
2022/05/21 00:51:17;;;;;;;11.13;7.97;;;;;;;15.07;90.37;94405.78;5052554;28;20416;-48
2022/05/21 00:53:45;;;;;;;12.07;7.90;;;;;;;15.08;89.76;94401.81;5076393;28;20044;-53
2022/05/21 00:56:14;;;;;;;13.52;7.93;;;;;;;15.13;90.04;94415.13;5092564;28;20056;-52
2022/05/21 01:01:33;;;;;;;10.07;6.78;;;;;;;14.94;88.22;94413.97;5080337;28;20047;-55
2022/05/21 01:04:00;;;;;;;10.52;7.35;;;;;;;14.92;88.81;94421.16;5072718;28;20040;-51
2022/05/21 01:06:29;;;;;;;9.93;7.10;;;;;;;14.85;88.10;94433.16;5071817;28;20040;-51
2022/05/21 01:08:55;;;;;;;9.80;7.38;;;;;;;14.86;89.29;94437.47;5072375;28;20036;-47
2022/05/21 01:11:22;;;;;;;10.35;6.47;;;;;;;14.76;87.91;94424.69;5071718;28;20290;-51
2022/05/21 01:13:51;;;;;;;9.73;6.55;;;;;;;14.67;87.65;94424.50;5072419;28;20047;-50
2022/05/21 01:16:18;;;;;;;11.30;6.40;;;;;;;14.66;87.04;94420.19;5072121;28;20047;-49
2022/05/21 01:18:44;;;;;;;9.33;6.10;;;;;;;14.50;86.07;94416.16;5071935;28;20566;-51
2022/05/21 01:21:12;;;;;;;9.40;6.13;;;;;;;14.48;87.71;94413.03;5071975;28;20055;-48
2022/05/21 01:23:38;;;;;;;9.82;5.97;;;;;;;14.43;86.73;94426.56;5071650;28;20033;-47
2022/05/21 01:26:12;;;;;;;8.55;5.60;;;;;;;14.36;84.84;94436.56;5071847;28;20045;-53
2022/05/21 01:28:39;;;;;;;7.40;5.20;;;;;;;14.50;83.81;94438.25;5071669;28;20040;-54
2022/05/21 01:31:05;;;;;;;7.50;4.90;;;;;;;14.45;83.16;94432.47;5072007;28;20489;-48
2022/05/21 01:33:36;;;;;;;8.38;5.22;;;;;;;14.17;84.24;94442.91;5071568;28;20048;-51
2022/05/21 01:36:05;;;;;;;8.63;5.38;;;;;;;14.21;84.12;94442.84;5071808;28;20040;-55
2022/05/21 01:38:34;;;;;;;7.35;5.00;;;;;;;14.22;84.58;94436.09;5071564;28;20047;-53
2022/05/21 01:41:00;;;;;;;8.68;5.57;;;;;;;14.12;85.22;94443.41;5071655;28;20485;-50
2022/05/21 01:46:15;;;;;;;9.32;5.10;;;;;;;14.12;85.17;94435.88;5071373;28;20056;-49
2022/05/21 01:48:42;;;;;;;8.77;5.00;;;;;;;14.08;85.23;94431.66;5071262;28;20040;-48
2022/05/21 01:51:09;;;;;;;9.70;5.40;;;;;;;14.05;85.07;94429.75;5071204;28;20129;-48
2022/05/21 01:53:38;;;;;;;9.02;5.32;;;;;;;13.93;85.91;94442.22;5096037;28;20054;-48
2022/05/21 01:56:07;;;;;;;8.10;5.70;;;;;;;14.01;85.61;94435.34;5091596;28;20035;-54
2022/05/21 01:58:34;;;;;;;9.30;5.05;;;;;;;14.08;85.82;94432.41;5091205;28;20392;-51
2022/05/21 02:01:03;;;;;;;8.38;5.45;;;;;;;14.08;86.05;94435.19;5091410;28;20042;-51
2022/05/21 02:03:30;;;;;;;7.97;5.30;;;;;;;14.11;85.91;94436.34;5091001;28;20078;-52
2022/05/21 02:05:56;;;;;;;7.93;5.30;;;;;;;13.97;85.13;94438.16;5091433;28;20040;-53
2022/05/21 02:08:23;;;;;;;8.50;5.37;;;;;;;13.83;85.94;94445.97;5091149;28;20081;-54
2022/05/21 02:10:51;;;;;;;7.85;5.40;;;;;;;13.84;86.63;94451.03;5091423;28;20036;-48
2022/05/21 02:13:26;;;;;;;7.45;5.43;;;;;;;13.93;86.80;94444.97;5091177;28;20047;-48
2022/05/21 02:15:53;;;;;;;7.50;5.28;;;;;;;13.95;86.44;94453.59;5090199;28;20036;-53
2022/05/21 02:18:20;;;;;;;8.57;5.20;;;;;;;13.98;86.55;94453.53;5090951;28;20077;-50
2022/05/21 02:20:49;;;;;;;7.30;5.20;;;;;;;13.88;86.73;94459.25;5090997;28;20062;-54
2022/05/21 02:23:17;;;;;;;8.98;5.35;;;;;;;13.77;87.26;94457.47;5091016;28;20048;-52
2022/05/21 02:25:44;;;;;;;8.27;5.47;;;;;;;13.77;87.36;94457.47;5082436;28;20046;-54
2022/05/21 02:28:12;;;;;;;7.35;5.10;;;;;;;13.76;87.41;94453.16;5091004;28;20442;-55
2022/05/21 02:30:40;;;;;;;8.57;5.53;;;;;;;13.75;88.91;94465.38;5090765;28;20104;-47
2022/05/21 02:33:07;;;;;;;10.77;5.60;;;;;;;13.74;88.16;94455.56;5091034;28;20052;-55
2022/05/21 02:35:34;;;;;;;7.93;5.40;;;;;;;13.65;87.90;94460.09;5090691;28;20062;-48
2022/05/21 02:40:46;;;;;;;9.15;5.30;;;;;;;13.46;87.97;94443.09;5089895;28;20490;-53
2022/05/21 02:43:13;;;;;;;8.85;5.47;;;;;;;13.25;87.96;94438.69;5090741;28;20044;-52
2022/05/21 02:45:40;;;;;;;7.97;4.90;;;;;;;13.28;87.45;94440.59;5090340;28;20112;-54
2022/05/21 02:48:07;;;;;;;7.82;4.95;;;;;;;13.32;87.53;94440.56;5090742;28;20055;-51
2022/05/21 02:50:34;;;;;;;7.78;4.50;;;;;;;13.11;86.44;94439.69;5090044;28;20089;-49
2022/05/21 02:53:04;;;;;;;6.70;4.72;;;;;;;13.10;86.40;94446.41;5083668;28;20051;-49
2022/05/21 02:55:31;;;;;;;7.32;4.47;;;;;;;13.08;86.65;94440.53;5069727;28;20353;-51
2022/05/21 02:57:58;;;;;;;6.93;4.13;;;;;;;13.11;85.93;94441.69;5070216;28;20045;-53
2022/05/21 03:00:28;;;;;;;8.52;4.28;;;;;;;12.99;85.46;94434.78;5069781;28;20043;-52
2022/05/21 03:02:55;;;;;;;7.20;4.20;;;;;;;13.10;85.29;94432.63;5070134;28;20081;-50
2022/05/21 03:05:22;;;;;;;6.45;4.10;;;;;;;13.01;84.51;94426.09;5069886;28;20041;-50
2022/05/21 03:07:50;;;;;;;6.22;4.00;;;;;;;13.06;84.87;94431.91;5070165;28;20410;-54
2022/05/21 03:10:28;;;;;;;5.90;3.60;;;;;;;13.08;84.16;94439.75;5070042;28;20053;-53
2022/05/21 03:13:00;;;;;;;6.32;3.80;;;;;;;13.01;84.65;94445.38;5070093;28;20397;-52
2022/05/21 03:15:36;;;;;;;6.32;3.80;;;;;;;13.05;83.81;94448.88;5069568;28;20047;-51
2022/05/21 03:18:06;;;;;;;7.03;4.38;;;;;;;12.89;86.30;94453.03;5069818;28;20064;-47
2022/05/21 03:20:33;;;;;;;9.23;4.53;;;;;;;12.95;86.00;94462.38;5069203;28;20052;-50
2022/05/21 03:23:00;;;;;;;7.30;4.30;;;;;;;12.97;85.76;94478.50;5085519;28;20453;-49
2022/05/21 03:25:27;;;;;;;9.10;4.47;;;;;;;12.95;86.34;94475.38;5080848;28;20407;-56
2022/05/21 03:27:54;;;;;;;7.18;4.40;;;;;;;12.95;86.00;94472.63;5090443;28;20407;-52
2022/05/21 03:30:23;;;;;;;7.35;4.20;;;;;;;12.98;85.28;94485.59;5089368;28;20378;-53
2022/05/21 03:32:50;;;;;;;8.25;4.43;;;;;;;12.80;85.76;94477.59;5090367;28;20036;-51
2022/05/21 03:35:17;;;;;;;6.60;4.10;;;;;;;12.76;86.75;94479.63;5090008;28;20058;-50
2022/05/21 03:37:45;;;;;;;6.00;3.70;;;;;;;12.73;86.46;94483.97;5089620;28;20419;-49
2022/05/21 03:40:15;;;;;;;7.45;3.83;;;;;;;12.51;86.68;94472.47;5089895;28;20054;-46
2022/05/21 03:42:42;;;;;;;6.47;3.95;;;;;;;12.42;86.98;94472.22;5089671;28;20048;-51
2022/05/21 03:45:10;;;;;;;6.18;4.03;;;;;;;12.37;87.15;94478.16;5089801;28;20442;-48
2022/05/21 03:47:38;;;;;;;8.17;4.00;;;;;;;12.32;87.29;94473.13;5089342;28;20048;-48
2022/05/21 03:50:05;;;;;;;6.90;3.92;;;;;;;12.33;87.10;94477.44;5089661;28;20438;-47
2022/05/21 03:52:32;;;;;;;6.72;4.05;;;;;;;12.43;86.69;94462.75;5068635;28;20040;-54
2022/05/21 03:55:00;;;;;;;41.38;24.25;;;;;;;12.38;86.74;94472.25;5069404;28;20048;-66
2022/05/21 03:57:27;;;;;;;9.45;5.70;;;;;;;12.46;86.56;94472.94;5069327;28;20378;-54
2022/05/21 03:59:54;;;;;;;7.57;4.30;;;;;;;12.53;86.05;94474.81;5069650;28;20041;-49
2022/05/21 04:02:21;;;;;;;6.53;4.10;;;;;;;12.53;86.21;94475.59;5068815;28;20044;-48
2022/05/21 04:04:47;;;;;;;6.65;4.25;;;;;;;12.57;85.37;94473.56;5069875;28;20443;-48
2022/05/21 04:07:14;;;;;;;6.65;4.40;;;;;;;12.57;85.36;94484.56;5069482;28;20075;-51
2022/05/21 04:09:42;;;;;;;9.80;4.50;;;;;;;12.64;84.67;94480.19;5069135;28;20052;-53
2022/05/21 04:12:09;;;;;;;8.00;4.50;;;;;;;12.56;84.82;94483.03;5069285;28;20056;-50
2022/05/21 04:14:36;;;;;;;6.40;4.43;;;;;;;12.64;84.50;94489.22;5069061;28;20048;-50
2022/05/21 04:17:04;;;;;;;6.57;4.30;;;;;;;12.74;84.44;94484.75;5069200;28;20048;-49
2022/05/21 04:19:31;;;;;;;8.00;4.30;;;;;;;12.75;83.34;94494.56;5069236;28;20050;-47
2022/05/21 04:21:58;;;;;;;7.20;4.47;;;;;;;12.77;83.13;94501.22;5069300;28;20048;-47
2022/05/21 04:24:25;;;;;;;10.67;4.20;;;;;;;12.73;84.22;94499.72;5096391;28;20044;-49
2022/05/21 04:26:53;;;;;;;6.97;3.80;;;;;;;12.85;82.70;94495.59;5089432;28;20043;-47
2022/05/21 04:29:20;;;;;;;9.00;4.18;;;;;;;12.85;82.53;94495.59;5089056;28;20051;-51
2022/05/21 04:31:46;;;;;;;6.65;4.03;;;;;;;12.87;82.20;94499.50;5087443;28;20040;-48
2022/05/21 04:34:14;;;;;;;7.07;4.10;;;;;;;12.98;81.54;94497.38;5089214;28;20116;-55
2022/05/21 04:36:41;;;;;;;8.60;5.43;;;;;;;13.07;81.10;94501.56;5090388;28;20044;-47
2022/05/21 04:39:08;;;;;;;6.72;4.28;;;;;;;13.06;81.51;94500.00;5093121;28;20390;-46
2022/05/21 04:41:35;;;;;;;11.52;4.30;;;;;;;13.03;82.20;94501.63;5092820;28;20040;-50
2022/05/21 04:44:03;;;;;;;6.35;4.45;;;;;;;13.13;81.81;94497.91;5092936;28;20044;-56
2022/05/21 04:46:31;;;;;;;7.35;4.47;;;;;;;13.22;81.09;94505.69;5092634;27;20130;-49
2022/05/21 04:48:58;;;;;;;5.67;4.13;;;;;;;13.29;80.22;94491.00;5093151;28;20432;-49
2022/05/21 04:51:34;;;;;;;6.20;4.25;;;;;;;13.07;82.55;94498.81;5092299;28;20050;-46
2022/05/21 04:54:01;;;;;;;7.22;4.20;;;;;;;12.97;81.19;94501.31;5077888;28;20138;-54
2022/05/21 04:56:29;;;;;;;6.10;4.22;;;;;;;12.94;82.29;94496.66;5071851;28;20056;-47
2022/05/21 04:59:07;;;;;;;6.07;4.38;;;;;;;13.17;81.73;94495.88;5072667;28;20047;-49
2022/05/21 05:01:34;;;;;;;8.83;3.93;;;;;;;13.27;79.58;94501.66;5072963;28;20048;-49
2022/05/21 05:04:01;;;;;;;7.22;4.07;;;;;;;13.31;80.45;94492.16;5072898;28;20041;-51
2022/05/21 05:06:28;;;;;;;5.85;3.92;;;;;;;13.41;79.28;94497.91;5087950;28;20394;-50
2022/05/21 05:08:55;;;;;;;7.05;4.22;;;;;;;13.43;79.91;94487.25;5072747;28;20172;-49
2022/05/21 05:11:22;;;;;;;7.15;4.00;;;;;;;13.55;79.31;94497.69;5072484;28;20052;-49
2022/05/21 05:13:48;;;;;;;5.97;3.70;;;;;;;13.45;79.37;94498.63;5072779;28;20044;-48
2022/05/21 05:16:16;;;;;;;6.35;4.15;;;;;;;13.49;79.24;94493.84;5071790;28;20044;-47
2022/05/21 05:18:51;;;;;;;7.03;4.00;;;;;;;13.43;79.44;94496.28;5071818;28;20070;-52
2022/05/21 05:21:18;;;;;;;6.75;4.07;;;;;;;13.49;78.12;94500.13;5071570;28;20074;-51
2022/05/21 05:23:45;;;;;;;9.13;4.22;;;;;;;13.53;77.99;94492.56;5071213;28;20033;-51
2022/05/21 05:26:12;;;;;;;6.97;4.23;;;;;;;13.44;78.35;94500.63;5072024;28;20160;-51
2022/05/21 05:28:38;;;;;;;7.13;4.28;;;;;;;13.44;78.50;94497.88;5087173;28;20044;-53
2022/05/21 05:31:06;;;;;;;7.00;4.22;;;;;;;13.61;77.25;94501.50;5070518;28;20033;-64
2022/05/21 05:33:33;;;;;;;5.75;4.20;;;;;;;14.36;74.68;94489.03;5071646;28;20117;-55
2022/05/21 05:36:00;;;;;;;6.85;4.15;;;;;;;16.95;65.82;94491.63;5071808;28;20408;-54
2022/05/21 05:38:27;;;;;;;6.93;4.10;;;;;;;18.82;64.73;94490.09;5070919;28;20089;-55
2022/05/21 05:40:55;;;;;;;5.40;3.60;;;;;;;18.96;57.52;94493.09;5071811;28;20114;-52
2022/05/21 05:43:22;;;;;;;5.75;3.30;;;;;;;20.92;51.92;94496.44;5071179;28;20129;-55
2022/05/21 05:45:53;;;;;;;4.60;3.15;;;;;;;20.92;51.13;94490.88;5071455;28;20379;-48
2022/05/21 05:48:20;;;;;;;4.85;3.10;;;;;;;21.51;49.55;94484.16;5070831;28;20071;-51
2022/05/21 05:50:54;;;;;;;4.77;3.20;;;;;;;23.46;45.49;94476.44;5070434;28;20971;-50
2022/05/21 05:53:21;;;;;;;7.45;2.90;;;;;;;23.43;43.66;94471.78;5078111;28;20058;-57
2022/05/21 05:55:48;;;;;;;5.22;2.85;;;;;;;24.92;40.01;94468.25;5091952;28;20054;-53
2022/05/21 06:01:01;;;;;;;5.78;2.90;;;;;;;24.25;41.77;94477.50;5090763;28;21397;-51
2022/05/21 06:03:27;;;;;;;5.60;2.73;;;;;;;24.88;38.55;94470.53;5090969;28;20850;-49
2022/05/21 06:05:54;;;;;;;7.43;2.72;;;;;;;25.67;37.54;94473.97;5091381;28;20092;-47
2022/05/21 06:08:21;;;;;;;5.10;3.20;;;;;;;21.60;44.62;94498.09;5090749;28;20040;-49
2022/05/21 06:10:49;;;;;;;7.80;3.03;;;;;;;20.86;46.32;94500.34;5091540;28;20133;-48
2022/05/21 06:13:16;;;;;;;5.35;2.90;;;;;;;25.22;37.16;94494.06;5091413;28;20416;-53
2022/05/21 06:15:43;;;;;;;5.00;3.00;;;;;;;25.45;37.86;94497.06;5090680;28;20050;-52
2022/05/21 06:18:13;;;;;;;5.03;3.20;;;;;;;25.81;37.84;94503.94;5090954;28;20164;-53
2022/05/21 06:20:41;;;;;;;4.43;2.80;;;;;;;23.87;42.23;94512.94;5090493;28;20048;-51
2022/05/21 06:23:09;;;;;;;4.20;3.08;;;;;;;25.02;40.45;94508.94;5091140;28;20400;-54
2022/05/21 06:25:35;;;;;;;5.57;2.63;;;;;;;27.11;35.16;94512.94;5082105;28;20495;-50
2022/05/21 06:28:04;;;;;;;5.00;3.10;;;;;;;25.85;36.87;94510.09;5089725;28;20051;-52
2022/05/21 06:30:34;;;;;;;5.95;2.63;;;;;;;26.58;37.86;94512.56;5090360;28;20058;-50
2022/05/21 06:33:18;;;;;;;5.63;2.30;;;;;;;29.16;33.74;94504.25;5090871;28;20446;-52
2022/05/21 06:35:46;;;;;;;3.50;2.25;;;;;;;30.30;28.64;94504.00;5089064;28;20044;-50
2022/05/21 06:38:13;;;;;;;5.25;2.38;;;;;;;30.80;27.61;94506.22;5090628;28;20462;-52
2022/05/21 06:40:40;;;;;;;3.37;2.17;;;;;;;31.74;26.60;94506.69;5090125;28;20047;-57
2022/05/21 06:43:07;;;;;;;4.97;2.72;;;;;;;29.56;29.29;94512.41;5090865;28;20450;-52
2022/05/21 06:45:35;;;;;;;3.90;2.88;;;;;;;24.43;38.63;94521.31;5089878;28;20058;-51
2022/05/21 06:48:07;;;;;;;3.33;2.00;;;;;;;29.18;29.03;94509.38;5090833;28;20054;-55
2022/05/21 06:50:37;;;;;;;3.13;2.17;;;;;;;28.82;29.32;94512.16;5089664;28;20392;-55
2022/05/21 06:53:04;;;;;;;3.60;2.30;;;;;;;28.01;29.59;94512.16;5083363;28;20048;-53
2022/05/21 06:55:32;;;;;;;3.22;2.05;;;;;;;31.05;25.70;94523.22;5069641;28;20070;-58
2022/05/21 06:57:58;;;;;;;4.75;2.08;;;;;;;30.98;25.26;94520.97;5070055;28;20130;-57
2022/05/21 07:00:25;;;;;;;3.75;2.20;;;;;;;30.18;25.98;94521.09;5068486;28;20083;-55
2022/05/21 07:02:54;;;;;;;3.30;2.00;;;;;;;29.84;27.25;94510.16;5070104;28;20041;-58
2022/05/21 07:08:17;;;;;;;3.45;1.70;;;;;;;32.01;24.66;94525.31;5083227;28;20053;-55
2022/05/21 07:10:43;;;;;;;2.80;1.77;;;;;;;31.42;25.06;94513.09;5069622;28;20044;-51
2022/05/21 07:13:10;;;;;;;4.30;1.80;;;;;;;32.30;23.00;94513.44;5069953;28;20050;-53
2022/05/21 07:15:37;;;;;;;2.92;1.70;;;;;;;32.78;22.73;94500.09;5069397;28;20075;-53
2022/05/21 07:18:04;;;;;;;2.70;1.77;;;;;;;31.09;25.20;94518.00;5069872;28;20036;-56
2022/05/21 07:20:31;;;;;;;4.22;1.85;;;;;;;31.22;24.36;94515.19;5068938;28;20048;-50
2022/05/21 07:23:00;;;;;;;2.80;1.50;;;;;;;33.40;23.55;94504.41;5069611;28;20036;-57
2022/05/21 07:25:29;;;;;;;3.35;1.67;;;;;;;31.30;23.52;94514.59;5051597;28;20055;-52
2022/05/21 07:27:58;;;;;;;3.83;1.50;;;;;;;32.47;22.21;94499.66;5049758;28;20379;-56
2022/05/21 07:30:25;;;;;;;2.80;1.40;;;;;;;32.18;21.98;94505.16;5049022;28;20053;-52
2022/05/21 07:32:55;;;;;;;3.80;1.55;;;;;;;32.71;22.78;94504.38;5049409;28;20493;-53
2022/05/21 07:35:24;;;;;;;4.03;1.75;;;;;;;33.87;21.70;94509.25;5049169;28;20049;-54
2022/05/21 07:37:51;;;;;;;3.65;1.60;;;;;;;34.18;21.75;94504.56;5049674;28;20071;-53
2022/05/21 07:40:21;;;;;;;2.97;1.55;;;;;;;32.88;22.06;94509.72;5049606;28;20052;-55
2022/05/21 07:42:48;;;;;;;3.10;1.47;;;;;;;34.01;20.79;94510.69;5048736;28;20882;-52
2022/05/21 07:45:18;;;;;;;2.75;1.70;;;;;;;33.71;22.35;94521.84;5049386;28;20043;-55
2022/05/21 07:47:45;;;;;;;4.30;1.70;;;;;;;33.58;21.97;94514.06;5064301;28;20045;-56
2022/05/21 07:50:12;;;;;;;5.93;1.77;;;;;;;34.45;20.90;94510.06;5049568;28;20055;-56
2022/05/21 07:52:39;;;;;;;2.80;1.90;;;;;;;31.90;23.00;94511.31;5053008;28;20382;-56
2022/05/21 07:55:07;;;;;;;4.13;1.80;;;;;;;33.14;22.54;94508.91;5068279;28;20055;-48
2022/05/21 07:57:34;;;;;;;4.10;1.90;;;;;;;33.50;22.01;94510.41;5069019;28;20354;-52
2022/05/21 08:00:05;;;;;;;2.60;1.63;;;;;;;33.89;21.49;94511.56;5069459;28;20052;-52
2022/05/21 08:02:31;;;;;;;3.65;1.63;;;;;;;34.79;20.53;94506.28;5068845;28;20063;-52
2022/05/21 08:04:59;;;;;;;2.88;1.63;;;;;;;34.09;21.57;94507.91;5069373;28;20059;-52
2022/05/21 08:07:26;;;;;;;3.17;1.50;;;;;;;34.75;20.34;94509.50;5068836;28;20105;-54
2022/05/21 08:09:53;;;;;;;4.38;1.60;;;;;;;34.66;20.26;94490.06;5068124;28;20101;-54
2022/05/21 08:12:20;;;;;;;3.78;1.85;;;;;;;32.96;21.69;94499.19;5071693;28;20044;-53
2022/05/21 08:14:46;;;;;;;3.65;1.70;;;;;;;33.22;22.14;94494.75;5072627;28;20822;-55
2022/05/21 08:17:13;;;;;;;3.53;1.90;;;;;;;33.87;21.08;94492.16;5072960;28;20047;-49
2022/05/21 08:19:41;;;;;;;3.83;1.60;;;;;;;33.99;21.35;94504.78;5072428;28;20044;-53
2022/05/21 08:27:40;;;;;;;2.60;1.70;;;;;;;35.47;19.99;94495.69;5092990;28;20948;-52
2022/05/21 08:30:08;;;;;;;6.40;1.90;;;;;;;35.99;19.21;94494.22;5093257;28;20084;-52
2022/05/21 08:32:35;;;;;;;2.67;1.70;;;;;;;35.51;19.52;94496.06;5071757;28;20032;-54
2022/05/21 08:35:03;;;;;;;3.88;1.50;;;;;;;36.40;18.25;94500.09;5073193;28;20051;-57
2022/05/21 08:37:30;;;;;;;3.67;1.60;;;;;;;36.44;17.94;94502.56;5072438;28;20048;-52
2022/05/21 08:39:57;;;;;;;3.03;1.70;;;;;;;31.13;23.34;94492.94;5072628;28;20043;-54
2022/05/21 08:42:38;;;;;;;3.30;1.77;;;;;;;31.06;24.06;94497.13;5071994;28;20051;-54
2022/05/21 08:45:31;;;;;;;4.10;1.90;;;;;;;28.98;27.06;94496.38;5073084;28;20477;-53
2022/05/21 08:48:03;;;;;;;2.85;1.80;;;;;;;30.83;23.28;94488.16;5071852;28;20378;-54
2022/05/21 08:50:34;;;;;;;3.35;1.60;;;;;;;31.88;22.50;94491.22;5072012;28;20061;-56
2022/05/21 08:53:13;;;;;;;2.85;1.50;;;;;;;33.24;20.49;94477.91;5072672;28;20358;-55
2022/05/21 08:55:45;;;;;;;3.22;1.60;;;;;;;32.54;21.41;94484.81;5071965;28;20037;-53
2022/05/21 08:58:23;;;;;;;2.50;1.50;;;;;;;33.45;20.07;94485.72;5072556;28;20049;-53
2022/05/21 09:00:50;;;;;;;3.17;1.30;;;;;;;35.18;18.88;94485.16;5064304;28;21054;-50
2022/05/21 09:03:23;;;;;;;4.38;1.30;;;;;;;34.68;18.86;94478.88;5072477;28;20048;-53
2022/05/21 09:05:55;;;;;;;5.65;1.50;;;;;;;33.28;20.35;94486.09;5071481;28;20778;-51
2022/05/21 09:08:33;;;;;;;3.45;1.35;;;;;;;33.18;20.01;94483.72;5071912;28;20056;-52
2022/05/21 09:11:11;;;;;;;3.30;1.50;;;;;;;34.83;18.21;94481.00;5072333;28;20067;-54
2022/05/21 09:13:46;;;;;;;3.00;1.30;;;;;;;35.07;18.71;94468.34;5071586;28;20053;-53
2022/05/21 09:19:07;;;;;;;3.00;1.20;;;;;;;35.56;18.63;94469.44;5069871;28;20048;-52
2022/05/21 09:21:39;;;;;;;2.28;1.30;;;;;;;34.60;19.05;94470.25;5071377;28;20043;-53
2022/05/21 09:24:08;;;;;;;2.57;1.20;;;;;;;34.91;19.24;94481.78;5074586;28;20043;-53
2022/05/21 09:26:48;;;;;;;3.05;1.30;;;;;;;33.61;20.30;94471.06;5091839;28;20055;-57
2022/05/21 09:29:20;;;;;;;2.63;1.30;;;;;;;33.49;20.15;94469.81;5091114;28;20059;-54
2022/05/21 09:31:48;;;;;;;2.45;1.20;;;;;;;34.34;19.51;94470.50;5106891;28;20040;-52
2022/05/21 09:34:32;;;;;;;2.72;1.23;;;;;;;35.06;19.25;94463.22;5092135;28;20042;-49
2022/05/21 09:37:01;;;;;;;2.57;1.27;;;;;;;33.89;20.45;94466.00;5091151;28;20040;-52
2022/05/21 09:39:39;;;;;;;2.90;1.23;;;;;;;34.22;20.08;94465.09;5091187;28;20405;-50
2022/05/21 09:45:22;;;;;;;2.70;1.40;;;;;;;34.28;18.68;94459.25;5091280;28;20050;-52
2022/05/21 09:47:51;;;;;;;2.65;1.25;;;;;;;36.06;17.16;94457.63;5090694;28;20071;-53
2022/05/21 09:50:24;;;;;;;3.23;1.00;;;;;;;36.42;16.73;94453.78;5091432;28;20040;-49
2022/05/21 09:52:51;;;;;;;4.68;1.35;;;;;;;35.01;18.71;94453.50;5086452;28;21633;-48
2022/05/21 09:55:26;;;;;;;2.58;1.30;;;;;;;35.66;16.99;94461.88;5071739;28;20044;-55
2022/05/21 09:58:08;;;;;;;3.85;1.30;;;;;;;31.78;20.68;94456.81;5083881;28;20187;-52
2022/05/21 10:00:37;;;;;;;2.70;1.20;;;;;;;32.46;20.11;94449.84;5091150;28;20044;-49
2022/05/21 10:03:08;;;;;;;2.53;1.20;;;;;;;31.18;21.21;94452.38;5091831;28;20050;-55
2022/05/21 10:06:04;;;;;;;2.50;1.10;;;;;;;31.48;20.75;94459.91;5089709;28;20497;-51
2022/05/21 10:11:29;;;;;;;3.30;1.20;;;;;;;33.17;19.61;94445.22;5090843;28;20040;-58
2022/05/21 10:14:05;;;;;;;2.42;1.00;;;;;;;32.10;20.53;94446.72;5090136;28;20059;-53
2022/05/21 10:16:39;;;;;;;3.00;1.00;;;;;;;31.98;20.86;94434.78;5090827;28;20050;-50
2022/05/21 10:19:26;;;;;;;2.28;1.10;;;;;;;28.38;26.54;94437.63;5091545;28;20035;-50
2022/05/21 10:22:11;;;;;;;3.25;1.20;;;;;;;29.59;23.94;94440.66;5089670;28;20885;-48
2022/05/21 10:25:00;;;;;;;3.35;1.13;;;;;;;30.96;21.47;94444.97;5076388;28;20045;-53
2022/05/21 10:27:57;;;;;;;3.05;1.10;;;;;;;30.44;22.16;94437.69;5070205;28;20554;-52
2022/05/21 10:30:33;;;;;;;2.63;1.10;;;;;;;26.40;26.34;94443.41;5070177;28;20040;-52
2022/05/21 10:33:02;;;;;;;3.00;1.10;;;;;;;27.96;25.94;94429.09;5070704;28;20029;-50
2022/05/21 10:35:58;;;;;;;2.13;0.90;;;;;;;28.74;23.67;94417.97;5069979;28;20044;-51
2022/05/21 10:39:13;;;;;;;2.58;1.02;;;;;;;26.43;26.74;94438.78;5069814;28;20040;-53
2022/05/21 10:42:42;;;;;;;2.00;1.00;;;;;;;24.00;31.01;94430.53;5060667;28;20036;-49
2022/05/21 10:45:32;;;;;;;3.40;1.00;;;;;;;22.96;33.04;94419.59;5027066;28;20920;-53
2022/05/21 10:48:23;;;;;;;2.10;1.00;;;;;;;22.38;34.41;94422.72;5067770;28;20364;-51
2022/05/21 10:51:36;;;;;;;2.28;1.00;;;;;;;23.52;30.28;94415.66;5069412;28;20717;-54
2022/05/21 10:54:21;;;;;;;2.50;1.10;;;;;;;24.22;28.98;94416.75;5051246;28;20348;-47
2022/05/21 10:57:07;;;;;;;2.20;0.90;;;;;;;23.76;29.83;94419.50;5073051;28;21757;-49
2022/05/21 11:00:11;;;;;;;2.37;0.90;;;;;;;22.94;31.03;94414.50;5089731;28;20048;-49
2022/05/21 11:02:43;;;;;;;2.25;0.90;;;;;;;21.81;33.79;94418.03;5089544;28;20040;-56
2022/05/21 11:05:38;;;;;;;3.38;1.13;;;;;;;21.44;34.69;94418.28;5090473;28;20108;-49
2022/05/21 11:08:38;;;;;;;2.90;1.20;;;;;;;22.66;32.84;94411.25;5075450;28;20098;-49
2022/05/21 11:11:37;;;;;;;3.10;1.23;;;;;;;22.45;32.72;94407.56;5089766;28;20858;-50
2022/05/21 11:14:14;;;;;;;3.10;1.30;;;;;;;23.01;33.34;94411.28;5074618;28;20648;-56
2022/05/21 11:17:04;;;;;;;2.75;1.17;;;;;;;23.24;32.31;94406.84;5089525;28;20056;-54
2022/05/21 11:19:39;;;;;;;2.92;1.10;;;;;;;23.08;33.92;94410.16;5089377;28;20042;-56
2022/05/21 11:22:16;;;;;;;2.92;1.13;;;;;;;22.57;33.87;94402.94;5090060;28;20043;-54
2022/05/21 11:24:53;;;;;;;3.72;1.00;;;;;;;22.67;33.13;94404.38;5063320;28;20045;-48
2022/05/21 11:27:29;;;;;;;2.00;1.00;;;;;;;22.16;33.87;94400.66;5050120;28;20041;-53
2022/05/21 11:30:04;;;;;;;2.85;1.13;;;;;;;22.48;33.22;94412.22;5049158;28;20863;-51
2022/05/21 11:38:34;;;;;;;2.15;0.90;;;;;;;22.53;33.21;94406.69;5048807;28;20085;-48
2022/05/21 11:41:27;;;;;;;4.30;1.00;;;;;;;22.34;33.38;94408.16;5049077;28;20048;-51
2022/05/21 11:47:05;;;;;;;2.90;0.98;;;;;;;22.92;33.52;94401.00;5048357;28;20440;-52
2022/05/21 11:49:49;;;;;;;3.05;1.10;;;;;;;23.13;32.20;94398.28;5048555;28;20057;-52
2022/05/21 11:52:31;;;;;;;2.20;1.20;;;;;;;22.41;32.65;94401.41;5049719;28;20401;-56
2022/05/21 11:55:02;;;;;;;2.40;1.00;;;;;;;21.77;33.90;94409.03;5048618;28;20620;-52
2022/05/21 11:57:38;;;;;;;2.10;1.00;;;;;;;22.12;33.97;94394.50;5048767;28;20044;-63
2022/05/21 12:00:05;;;;;;;2.13;1.00;;;;;;;22.91;33.10;94396.63;5049303;28;20460;-51
2022/05/21 12:02:35;;;;;;;2.22;1.10;;;;;;;23.50;32.66;94390.16;5048928;28;20037;-54
2022/05/21 12:05:11;;;;;;;2.65;1.10;;;;;;;23.62;30.94;94395.88;5049687;28;20413;-51
2022/05/21 12:07:40;;;;;;;2.40;1.03;;;;;;;22.94;32.48;94394.91;5048870;28;20049;-53
2022/05/21 12:10:24;;;;;;;2.50;1.15;;;;;;;22.46;32.96;94395.91;5049621;28;20045;-50
2022/05/21 12:13:16;;;;;;;2.20;1.20;;;;;;;23.25;33.30;94394.38;5048413;28;20823;-56
2022/05/21 12:15:50;;;;;;;2.20;1.08;;;;;;;23.65;31.46;94389.31;5048360;28;21815;-55
2022/05/21 12:18:34;;;;;;;3.15;1.10;;;;;;;23.75;31.13;94387.16;5047956;28;20045;-56
2022/05/21 12:21:02;;;;;;;2.07;1.10;;;;;;;24.79;30.66;94389.28;5048274;28;20043;-51
2022/05/21 12:23:31;;;;;;;3.08;1.00;;;;;;;24.90;29.70;94378.91;5053039;28;20427;-56
2022/05/21 12:26:01;;;;;;;2.35;0.98;;;;;;;25.22;29.03;94376.09;5069384;28;20404;-56
2022/05/21 12:28:37;;;;;;;2.30;1.17;;;;;;;24.97;29.85;94388.13;5068867;28;20041;-51